LZB9991 LBSF-LBWN

Flight info

Callsign LZB9991
Flight time 0h 33m
Altitude 29000
Route UMPIT T343 DICXA
Aircraft A319/M-SDE3FGHIRWY/LB1

Departure

Time 2026-04-27 15:42
Airport Sofia Airport (LBSF)

Arrival

Time 2026-04-27 16:15
Airport Varna Airport (LBWN)
Time Latitude Longitude Altitude Speed Heading
2026-04-27 15:17 42.69006 23.41004 1750 ft 0 kts 162°
2026-04-27 15:35 42.69005 23.41005 1750 ft 1 kts 162°
2026-04-27 15:35 42.68995 23.41011 1743 ft 3 kts 156°
2026-04-27 15:36 42.68963 23.41020 1750 ft 6 kts 185°
2026-04-27 15:36 42.68931 23.40967 1750 ft 9 kts 253°
2026-04-27 15:36 42.68911 23.40865 1750 ft 13 kts 263°
2026-04-27 15:36 42.68936 23.40733 1747 ft 16 kts 287°
2026-04-27 15:37 42.68966 23.40588 1747 ft 15 kts 286°
2026-04-27 15:37 42.68997 23.40445 1748 ft 16 kts 287°
2026-04-27 15:37 42.69028 23.40303 1749 ft 13 kts 287°
2026-04-27 15:37 42.69050 23.40204 1743 ft 10 kts 287°
2026-04-27 15:38 42.69071 23.40110 1749 ft 11 kts 287°
2026-04-27 15:38 42.69092 23.40005 1744 ft 12 kts 282°
2026-04-27 15:38 42.69108 23.39891 1743 ft 13 kts 285°
2026-04-27 15:38 42.69133 23.39773 1748 ft 14 kts 286°
2026-04-27 15:39 42.69161 23.39646 1748 ft 14 kts 287°
2026-04-27 15:39 42.69213 23.39542 1746 ft 14 kts 346°
2026-04-27 15:39 42.69307 23.39551 1748 ft 14 kts
2026-04-27 15:39 42.69407 23.39565 1748 ft 15 kts
2026-04-27 15:40 42.69513 23.39577 1744 ft 16 kts
2026-04-27 15:40 42.69624 23.39589 1748 ft 16 kts
2026-04-27 15:40 42.69734 23.39603 1741 ft 16 kts 14°
2026-04-27 15:40 42.69769 23.39716 1749 ft 4 kts 94°
2026-04-27 15:41 42.69769 23.39717 1749 ft 0 kts 94°
2026-04-27 15:41 42.69764 23.39794 1750 ft 32 kts 95°
2026-04-27 15:41 42.69721 23.40491 1748 ft 113 kts 94°
2026-04-27 15:41 42.69636 23.41845 1805 ft 165 kts 98°
2026-04-27 15:42 42.69523 23.43377 2527 ft 166 kts 96°
2026-04-27 15:42 42.69392 23.44993 3224 ft 178 kts 97°
2026-04-27 15:42 42.69239 23.46703 4034 ft 184 kts 92°
2026-04-27 15:42 42.69350 23.48429 4908 ft 184 kts 79°
2026-04-27 15:43 42.69747 23.50155 5451 ft 203 kts 65°
2026-04-27 15:43 42.70375 23.51999 5949 ft 227 kts 64°
2026-04-27 15:43 42.71068 23.54057 6479 ft 252 kts 64°
2026-04-27 15:43 42.71829 23.56328 7040 ft 275 kts 64°
2026-04-27 15:44 42.72636 23.58747 7921 ft 285 kts 64°
2026-04-27 15:44 42.73463 23.61231 8880 ft 292 kts 63°
2026-04-27 15:44 42.74308 23.63777 9858 ft 298 kts 62°
2026-04-27 15:44 42.75188 23.66410 10482 ft 318 kts 63°
2026-04-27 15:45 42.76142 23.69253 10854 ft 342 kts 63°
2026-04-27 15:45 42.77149 23.72268 11500 ft 355 kts 63°
2026-04-27 15:45 42.78169 23.75349 12383 ft 359 kts 63°
2026-04-27 15:45 42.79183 23.78422 13249 ft 363 kts 63°
2026-04-27 15:46 42.80202 23.81589 14096 ft 367 kts 67°
2026-04-27 15:46 42.80872 23.84968 14842 ft 374 kts 79°
2026-04-27 15:46 42.81047 23.88524 15576 ft 380 kts 91°
2026-04-27 15:46 42.80743 23.92122 16298 ft 386 kts 98°
2026-04-27 15:47 42.80340 23.95752 17030 ft 390 kts 98°
2026-04-27 15:47 42.79934 23.99424 17764 ft 394 kts 98°
2026-04-27 15:47 42.79526 24.03135 18489 ft 398 kts 98°
2026-04-27 15:47 42.79116 24.06883 19131 ft 402 kts 98°
2026-04-27 15:48 42.78705 24.10664 19762 ft 406 kts 98°
2026-04-27 15:48 42.78314 24.14491 20404 ft 410 kts 95°
2026-04-27 15:48 42.78284 24.18387 21030 ft 414 kts 85°
2026-04-27 15:49 42.79361 24.26147 22279 ft 421 kts 77°
2026-04-27 15:49 42.79984 24.30055 22882 ft 425 kts 77°
2026-04-27 15:49 42.80605 24.34011 23453 ft 429 kts 77°
2026-04-27 15:49 42.81224 24.37993 23974 ft 432 kts 77°
2026-04-27 15:50 42.81849 24.42022 24446 ft 436 kts 77°
2026-04-27 15:50 42.82476 24.46071 24923 ft 439 kts 77°
2026-04-27 15:50 42.83107 24.50150 25381 ft 442 kts 77°
2026-04-27 15:50 42.83743 24.54265 25839 ft 445 kts 77°
2026-04-27 15:51 42.84383 24.58411 26284 ft 448 kts 77°
2026-04-27 15:51 42.85026 24.62576 26741 ft 451 kts 77°
2026-04-27 15:51 42.85681 24.66770 27181 ft 454 kts 76°
2026-04-27 15:51 42.86343 24.70994 27633 ft 457 kts 76°
2026-04-27 15:52 42.87010 24.75242 28073 ft 460 kts 76°
2026-04-27 15:52 42.87676 24.79522 28495 ft 463 kts 76°
2026-04-27 15:52 42.88343 24.83832 28913 ft 466 kts 76°
2026-04-27 15:52 42.89012 24.88159 29140 ft 467 kts 76°
2026-04-27 15:53 42.89678 24.92477 29173 ft 463 kts 76°
2026-04-27 15:53 42.90993 25.01048 29169 ft 461 kts 76°
2026-04-27 15:54 42.92300 25.09617 29164 ft 461 kts 77°
2026-04-27 15:54 42.93603 25.18177 29164 ft 461 kts 77°
2026-04-27 15:55 42.94902 25.26741 29161 ft 461 kts 77°
2026-04-27 15:55 42.96186 25.35317 29152 ft 461 kts 77°
2026-04-27 15:56 42.97465 25.43887 29145 ft 461 kts 77°
2026-04-27 15:56 42.98742 25.52462 29142 ft 460 kts 77°
2026-04-27 15:57 43.00005 25.60974 29133 ft 460 kts 77°
2026-04-27 15:57 43.01274 25.69594 29124 ft 460 kts 77°
2026-04-27 15:58 43.02546 25.78260 29164 ft 466 kts 77°
2026-04-27 15:58 43.03791 25.86858 29164 ft 464 kts 77°
2026-04-27 15:59 43.05037 25.95505 29134 ft 464 kts 77°
2026-04-27 15:59 43.06290 26.04171 29116 ft 464 kts 77°
2026-04-27 15:59 43.06908 26.08462 28415 ft 459 kts 77°
2026-04-27 16:00 43.07524 26.12762 27382 ft 461 kts 78°
2026-04-27 16:00 43.07940 26.15673 26787 ft 463 kts 78°
2026-04-27 16:00 43.08751 26.21396 25794 ft 461 kts 78°
2026-04-27 16:00 43.09353 26.25682 25061 ft 457 kts 78°
2026-04-27 16:01 43.09748 26.28507 24592 ft 455 kts 78°
2026-04-27 16:01 43.10340 26.32737 23892 ft 451 kts 78°
2026-04-27 16:01 43.10932 26.36940 23101 ft 448 kts 78°
2026-04-27 16:01 43.11518 26.41102 22433 ft 442 kts 78°
2026-04-27 16:02 43.12094 26.45208 21854 ft 437 kts 78°
2026-04-27 16:02 43.12661 26.49276 21286 ft 433 kts 78°
2026-04-27 16:02 43.13221 26.53308 20736 ft 429 kts 78°
2026-04-27 16:02 43.13786 26.57359 20180 ft 426 kts 78°
2026-04-27 16:03 43.14330 26.61274 19654 ft 423 kts 78°
2026-04-27 16:03 43.14876 26.65219 19128 ft 420 kts 78°
2026-04-27 16:03 43.15415 26.69138 18611 ft 417 kts 79°
2026-04-27 16:03 43.15949 26.73028 18040 ft 414 kts 79°
2026-04-27 16:04 43.16475 26.76885 17455 ft 410 kts 79°
2026-04-27 16:04 43.16994 26.80712 16883 ft 407 kts 79°
2026-04-27 16:04 43.17509 26.84505 16328 ft 403 kts 78°
2026-04-27 16:04 43.18022 26.88266 15777 ft 400 kts 78°
2026-04-27 16:05 43.18532 26.91993 15249 ft 396 kts 78°
2026-04-27 16:05 43.19031 26.95685 14712 ft 392 kts 78°
2026-04-27 16:05 43.19520 26.99341 14192 ft 388 kts 78°
2026-04-27 16:05 43.20030 27.02948 13627 ft 383 kts 75°
2026-04-27 16:06 43.20976 27.06315 13054 ft 376 kts 60°
2026-04-27 16:06 43.22421 27.09261 12485 ft 370 kts 51°
2026-04-27 16:06 43.23954 27.12070 11933 ft 366 kts 51°
2026-04-27 16:06 43.25461 27.14849 11386 ft 362 kts 51°
2026-04-27 16:07 43.26929 27.17595 10837 ft 350 kts 54°
2026-04-27 16:07 43.27945 27.20551 10317 ft 339 kts 73°
2026-04-27 16:07 43.28240 27.23696 9764 ft 329 kts 91°
2026-04-27 16:07 43.28010 27.26778 9187 ft 320 kts 96°
2026-04-27 16:08 43.27752 27.29771 8621 ft 312 kts 96°
2026-04-27 16:08 43.27625 27.31306 8334 ft 308 kts 95°
2026-04-27 16:08 43.27394 27.34101 7797 ft 301 kts 95°
2026-04-27 16:08 43.27156 27.36920 7259 ft 295 kts 95°
2026-04-27 16:09 43.26919 27.39688 6729 ft 290 kts 95°
2026-04-27 16:09 43.26450 27.45095 5597 ft 279 kts 95°
2026-04-27 16:09 43.26223 27.47713 5048 ft 274 kts 95°
2026-04-27 16:10 43.25799 27.52697 4371 ft 248 kts 95°
2026-04-27 16:10 43.25410 27.57216 3743 ft 230 kts 97°
2026-04-27 16:11 43.25226 27.59351 3456 ft 221 kts 97°
2026-04-27 16:11 43.24871 27.63436 2860 ft 211 kts 98°
2026-04-27 16:12 43.24544 27.67200 2326 ft 186 kts 99°
2026-04-27 16:12 43.24400 27.68863 2100 ft 163 kts 99°
2026-04-27 16:12 43.24152 27.71686 1669 ft 142 kts 99°
2026-04-27 16:13 43.24037 27.72992 1458 ft 138 kts 99°
2026-04-27 16:13 43.23812 27.75550 1045 ft 133 kts 99°
2026-04-27 16:13 43.23702 27.76792 848 ft 130 kts 99°
2026-04-27 16:14 43.23494 27.79244 514 ft 130 kts 99°
2026-04-27 16:14 43.23276 27.81687 239 ft 126 kts 101°
2026-04-27 16:15 43.23137 27.83180 222 ft 19 kts 97°
2026-04-27 16:15 43.23226 27.83295 222 ft 10 kts
2026-04-27 16:16 43.23337 27.83313 222 ft 6 kts
2026-04-27 16:16 43.23399 27.83209 225 ft 15 kts 274°
2026-04-27 16:17 43.23415 27.83025 223 ft 7 kts 276°
2026-04-27 16:17 43.23424 27.82917 222 ft 4 kts 276°
2026-04-27 16:18 43.23445 27.82887 222 ft 6 kts 348°
2026-04-27 16:18 43.23471 27.82893 222 ft 2 kts 11°
2026-04-27 16:19 43.23481 27.82895 222 ft 1 kts
2026-04-27 16:19 43.23484 27.82896 222 ft 0 kts